CCA4328 ZUUU-ZGGG
Flight info
| Callsign | CCA4328 |
|---|---|
| Flight time | N/A |
| Altitude | 35100 |
| Route | IDBOR9W IDBOR B330 KWE W181 DUDIT A599 GYA GYA9 |
| Aircraft | A321/M-SDE3FGHIRWY/LB1 |
Departure
| Time | N/A |
|---|---|
| Airport | Chengdu Shuangliu International Airport (ZUUU) |
Arrival
| Time | 2026-05-07 14:37 |
|---|---|
| Airport | Guangzhou Baiyun International Airport (ZGGG) |
| Time | Latitude | Longitude | Altitude | Speed | Heading |
|---|---|---|---|---|---|
| 2026-05-07 14:33 | 23.52661 | 113.31473 | 2325 ft | 141 kts | 194° |
| 2026-05-07 14:34 | 23.51717 | 113.31218 | 2137 ft | 139 kts | 194° |
| 2026-05-07 14:34 | 23.50780 | 113.30964 | 1967 ft | 139 kts | 194° |
| 2026-05-07 14:34 | 23.49840 | 113.30744 | 1779 ft | 138 kts | 188° |
| 2026-05-07 14:34 | 23.48880 | 113.30680 | 1557 ft | 139 kts | 181° |
| 2026-05-07 14:35 | 23.47916 | 113.30704 | 1325 ft | 138 kts | 181° |
| 2026-05-07 14:35 | 23.46960 | 113.30659 | 1109 ft | 137 kts | 186° |
| 2026-05-07 14:35 | 23.46011 | 113.30502 | 962 ft | 138 kts | 190° |
| 2026-05-07 14:35 | 23.45068 | 113.30314 | 845 ft | 139 kts | 191° |
| 2026-05-07 14:36 | 23.44121 | 113.30082 | 706 ft | 139 kts | 194° |
| 2026-05-07 14:36 | 23.43175 | 113.29822 | 532 ft | 141 kts | 194° |
| 2026-05-07 14:36 | 23.42220 | 113.29578 | 368 ft | 141 kts | 193° |
| 2026-05-07 14:36 | 23.41277 | 113.29320 | 199 ft | 140 kts | 194° |
| 2026-05-07 14:37 | 23.40355 | 113.29070 | 59 ft | 133 kts | 195° |
| 2026-05-07 14:37 | 23.39305 | 113.28786 | 57 ft | 27 kts | 194° |
| 2026-05-07 14:37 | 23.39095 | 113.28776 | 55 ft | 26 kts | 165° |
| 2026-05-07 14:38 | 23.38961 | 113.28816 | 53 ft | 19 kts | 166° |
| 2026-05-07 14:38 | 23.38834 | 113.28844 | 52 ft | 18 kts | 175° |
| 2026-05-07 14:38 | 23.38732 | 113.28872 | 55 ft | 15 kts | 110° |
| 2026-05-07 14:38 | 23.38708 | 113.28981 | 56 ft | 15 kts | 104° |
| 2026-05-07 14:39 | 23.38696 | 113.29089 | 59 ft | 14 kts | 73° |
| 2026-05-07 14:39 | 23.38732 | 113.29182 | 58 ft | 13 kts | 66° |
| 2026-05-07 14:39 | 23.38769 | 113.29271 | 55 ft | 12 kts | 65° |
| 2026-05-07 14:39 | 23.38784 | 113.29313 | 54 ft | 5 kts | 76° |
| 2026-05-07 14:40 | 23.38776 | 113.29334 | 53 ft | 2 kts | 141° |
| 2026-05-07 14:40 | 23.38763 | 113.29340 | 53 ft | 2 kts | 157° |
| 2026-05-07 14:40 | 23.38740 | 113.29352 | 54 ft | 2 kts | 155° |
| 2026-05-07 14:40 | 23.38729 | 113.29357 | 58 ft | 0 kts | 156° |